sensor_id;sensor_type;location;lat;lon;timestamp;P1;durP1;ratioP1;P2;durP2;ratioP2
63350;SDS011;64988;51.058;17.040;2023-05-29T00:04:44;5.10;;;2.42;;
63350;SDS011;64988;51.058;17.040;2023-05-29T00:10:11;2.75;;;2.13;;
63350;SDS011;64988;51.058;17.040;2023-05-29T00:15:39;7.45;;;2.47;;
63350;SDS011;64988;51.058;17.040;2023-05-29T00:21:06;5.20;;;2.55;;
63350;SDS011;64988;51.058;17.040;2023-05-29T00:26:34;4.13;;;1.90;;
63350;SDS011;64988;51.058;17.040;2023-05-29T00:32:02;7.90;;;2.97;;
63350;SDS011;64988;51.058;17.040;2023-05-29T00:37:30;6.82;;;2.80;;
63350;SDS011;64988;51.058;17.040;2023-05-29T00:42:58;6.50;;;2.88;;
63350;SDS011;64988;51.058;17.040;2023-05-29T00:48:25;8.50;;;3.20;;
63350;SDS011;64988;51.058;17.040;2023-05-29T00:53:53;5.20;;;2.65;;
63350;SDS011;64988;51.058;17.040;2023-05-29T00:59:21;4.13;;;2.50;;
63350;SDS011;64988;51.058;17.040;2023-05-29T01:04:49;3.17;;;1.75;;
63350;SDS011;64988;51.058;17.040;2023-05-29T01:10:16;3.50;;;2.03;;
63350;SDS011;64988;51.058;17.040;2023-05-29T01:32:23;7.03;;;2.63;;
63350;SDS011;64988;51.058;17.040;2023-05-29T01:37:52;6.13;;;2.95;;
63350;SDS011;64988;51.058;17.040;2023-05-29T01:43:22;11.57;;;2.67;;
63350;SDS011;64988;51.058;17.040;2023-05-29T01:48:48;3.60;;;2.10;;
63350;SDS011;64988;51.058;17.040;2023-05-29T01:54:15;9.45;;;2.67;;
63350;SDS011;64988;51.058;17.040;2023-05-29T01:59:42;6.90;;;3.45;;
63350;SDS011;64988;51.058;17.040;2023-05-29T02:05:09;5.85;;;3.08;;
63350;SDS011;64988;51.058;17.040;2023-05-29T02:10:37;5.97;;;2.60;;
63350;SDS011;64988;51.058;17.040;2023-05-29T02:16:05;7.28;;;2.88;;
63350;SDS011;64988;51.058;17.040;2023-05-29T02:21:33;9.15;;;3.75;;
63350;SDS011;64988;51.058;17.040;2023-05-29T02:26:59;8.35;;;2.95;;
63350;SDS011;64988;51.058;17.040;2023-05-29T02:32:28;7.88;;;3.30;;
63350;SDS011;64988;51.058;17.040;2023-05-29T02:37:56;4.13;;;2.92;;
63350;SDS011;64988;51.058;17.040;2023-05-29T02:43:24;11.93;;;3.95;;
63350;SDS011;64988;51.058;17.040;2023-05-29T02:48:52;5.57;;;2.90;;
63350;SDS011;64988;51.058;17.040;2023-05-29T02:54:19;7.97;;;4.57;;
63350;SDS011;64988;51.058;17.040;2023-05-29T02:59:47;8.10;;;4.10;;
63350;SDS011;64988;51.058;17.040;2023-05-29T03:05:14;4.90;;;3.78;;
63350;SDS011;64988;51.058;17.040;2023-05-29T03:10:41;6.93;;;3.78;;
63350;SDS011;64988;51.058;17.040;2023-05-29T03:16:11;6.20;;;3.70;;
63350;SDS011;64988;51.058;17.040;2023-05-29T03:21:39;9.40;;;3.95;;
63350;SDS011;64988;51.058;17.040;2023-05-29T03:27:07;10.77;;;3.67;;
63350;SDS011;64988;51.058;17.040;2023-05-29T03:32:36;6.03;;;3.70;;
63350;SDS011;64988;51.058;17.040;2023-05-29T03:38:04;8.65;;;3.47;;
63350;SDS011;64988;51.058;17.040;2023-05-29T03:43:31;5.25;;;3.05;;
63350;SDS011;64988;51.058;17.040;2023-05-29T03:48:58;9.82;;;3.75;;
63350;SDS011;64988;51.058;17.040;2023-05-29T03:54:26;5.60;;;3.67;;
63350;SDS011;64988;51.058;17.040;2023-05-29T03:59:53;8.18;;;4.03;;
63350;SDS011;64988;51.058;17.040;2023-05-29T04:05:22;11.63;;;4.25;;
63350;SDS011;64988;51.058;17.040;2023-05-29T04:10:49;13.02;;;4.18;;
63350;SDS011;64988;51.058;17.040;2023-05-29T04:16:20;8.05;;;3.85;;
63350;SDS011;64988;51.058;17.040;2023-05-29T04:21:48;6.28;;;3.78;;
63350;SDS011;64988;51.058;17.040;2023-05-29T04:27:15;6.53;;;3.88;;
63350;SDS011;64988;51.058;17.040;2023-05-29T04:32:43;6.60;;;3.75;;
63350;SDS011;64988;51.058;17.040;2023-05-29T04:38:11;5.38;;;4.00;;
63350;SDS011;64988;51.058;17.040;2023-05-29T04:43:40;8.48;;;3.83;;
63350;SDS011;64988;51.058;17.040;2023-05-29T04:49:06;9.43;;;3.97;;
63350;SDS011;64988;51.058;17.040;2023-05-29T04:54:34;7.22;;;4.32;;
63350;SDS011;64988;51.058;17.040;2023-05-29T05:00:02;7.20;;;3.78;;
63350;SDS011;64988;51.058;17.040;2023-05-29T05:05:36;8.18;;;4.85;;
63350;SDS011;64988;51.058;17.040;2023-05-29T05:11:04;8.40;;;3.65;;
63350;SDS011;64988;51.058;17.040;2023-05-29T05:16:34;5.95;;;3.83;;
63350;SDS011;64988;51.058;17.040;2023-05-29T05:22:02;6.18;;;4.13;;
63350;SDS011;64988;51.058;17.040;2023-05-29T05:27:29;6.97;;;4.25;;
63350;SDS011;64988;51.058;17.040;2023-05-29T05:32:57;7.28;;;4.30;;
63350;SDS011;64988;51.058;17.040;2023-05-29T05:38:25;5.85;;;3.92;;
63350;SDS011;64988;51.058;17.040;2023-05-29T05:43:53;6.00;;;3.17;;
63350;SDS011;64988;51.058;17.040;2023-05-29T05:49:37;6.70;;;3.30;;
63350;SDS011;64988;51.058;17.040;2023-05-29T05:55:04;8.20;;;3.70;;
63350;SDS011;64988;51.058;17.040;2023-05-29T06:00:32;3.87;;;3.47;;
63350;SDS011;64988;51.058;17.040;2023-05-29T06:06:00;4.13;;;3.33;;
63350;SDS011;64988;51.058;17.040;2023-05-29T06:11:29;5.43;;;3.90;;
63350;SDS011;64988;51.058;17.040;2023-05-29T06:22:25;3.03;;;2.40;;
63350;SDS011;64988;51.058;17.040;2023-05-29T06:27:52;3.73;;;2.20;;
63350;SDS011;64988;51.058;17.040;2023-05-29T06:33:20;9.35;;;2.92;;
63350;SDS011;64988;51.058;17.040;2023-05-29T06:38:49;3.28;;;2.03;;
63350;SDS011;64988;51.058;17.040;2023-05-29T06:44:16;4.20;;;2.20;;
63350;SDS011;64988;51.058;17.040;2023-05-29T06:49:44;3.78;;;2.58;;
63350;SDS011;64988;51.058;17.040;2023-05-29T06:55:12;4.05;;;1.85;;
63350;SDS011;64988;51.058;17.040;2023-05-29T07:00:40;3.28;;;2.10;;
63350;SDS011;64988;51.058;17.040;2023-05-29T07:06:40;8.98;;;2.08;;
63350;SDS011;64988;51.058;17.040;2023-05-29T07:12:08;3.58;;;1.67;;
63350;SDS011;64988;51.058;17.040;2023-05-29T07:17:36;2.13;;;1.80;;
63350;SDS011;64988;51.058;17.040;2023-05-29T07:23:18;1.77;;;1.48;;
63350;SDS011;64988;51.058;17.040;2023-05-29T07:28:45;1.55;;;1.40;;
63350;SDS011;64988;51.058;17.040;2023-05-29T07:34:12;2.92;;;1.83;;
63350;SDS011;64988;51.058;17.040;2023-05-29T07:39:39;1.90;;;1.50;;
63350;SDS011;64988;51.058;17.040;2023-05-29T07:45:26;2.65;;;1.20;;
63350;SDS011;64988;51.058;17.040;2023-05-29T07:50:53;1.20;;;1.17;;
63350;SDS011;64988;51.058;17.040;2023-05-29T07:56:24;1.50;;;1.20;;
63350;SDS011;64988;51.058;17.040;2023-05-29T08:01:53;1.38;;;1.15;;
63350;SDS011;64988;51.058;17.040;2023-05-29T08:07:39;1.27;;;1.10;;
63350;SDS011;64988;51.058;17.040;2023-05-29T08:13:07;2.33;;;1.00;;
63350;SDS011;64988;51.058;17.040;2023-05-29T08:18:36;1.38;;;1.27;;
63350;SDS011;64988;51.058;17.040;2023-05-29T08:24:03;2.63;;;1.60;;
63350;SDS011;64988;51.058;17.040;2023-05-29T08:29:34;1.00;;;0.85;;
63350;SDS011;64988;51.058;17.040;2023-05-29T08:35:03;2.38;;;1.40;;
63350;SDS011;64988;51.058;17.040;2023-05-29T08:40:31;5.10;;;1.90;;
63350;SDS011;64988;51.058;17.040;2023-05-29T08:46:00;1.90;;;1.02;;
63350;SDS011;64988;51.058;17.040;2023-05-29T08:51:31;1.33;;;1.00;;
63350;SDS011;64988;51.058;17.040;2023-05-29T08:56:59;1.77;;;1.25;;
63350;SDS011;64988;51.058;17.040;2023-05-29T09:02:28;1.57;;;1.20;;
63350;SDS011;64988;51.058;17.040;2023-05-29T09:07:56;5.60;;;1.50;;
63350;SDS011;64988;51.058;17.040;2023-05-29T09:13:23;1.88;;;1.48;;
63350;SDS011;64988;51.058;17.040;2023-05-29T09:18:52;2.22;;;1.10;;
63350;SDS011;64988;51.058;17.040;2023-05-29T09:24:19;1.65;;;1.48;;
63350;SDS011;64988;51.058;17.040;2023-05-29T09:29:49;5.03;;;2.40;;
63350;SDS011;64988;51.058;17.040;2023-05-29T09:35:18;7.75;;;1.73;;
63350;SDS011;64988;51.058;17.040;2023-05-29T09:40:46;1.55;;;1.45;;
63350;SDS011;64988;51.058;17.040;2023-05-29T09:46:17;1.63;;;1.50;;
63350;SDS011;64988;51.058;17.040;2023-05-29T09:51:45;3.80;;;2.00;;
63350;SDS011;64988;51.058;17.040;2023-05-29T09:57:16;1.20;;;1.17;;
63350;SDS011;64988;51.058;17.040;2023-05-29T10:02:43;3.47;;;1.40;;
63350;SDS011;64988;51.058;17.040;2023-05-29T10:08:18;5.40;;;1.63;;
63350;SDS011;64988;51.058;17.040;2023-05-29T10:13:46;1.70;;;1.42;;
63350;SDS011;64988;51.058;17.040;2023-05-29T10:19:16;2.47;;;2.03;;
63350;SDS011;64988;51.058;17.040;2023-05-29T10:24:45;2.10;;;1.70;;
63350;SDS011;64988;51.058;17.040;2023-05-29T10:41:51;3.53;;;1.60;;
63350;SDS011;64988;51.058;17.040;2023-05-29T10:47:24;4.28;;;2.10;;
63350;SDS011;64988;51.058;17.040;2023-05-29T10:52:51;5.80;;;1.35;;
63350;SDS011;64988;51.058;17.040;2023-05-29T10:58:19;3.90;;;1.60;;
63350;SDS011;64988;51.058;17.040;2023-05-29T11:03:46;5.43;;;1.98;;
63350;SDS011;64988;51.058;17.040;2023-05-29T11:09:27;2.03;;;1.80;;
63350;SDS011;64988;51.058;17.040;2023-05-29T11:14:56;4.38;;;1.77;;
63350;SDS011;64988;51.058;17.040;2023-05-29T11:20:27;1.73;;;1.45;;
63350;SDS011;64988;51.058;17.040;2023-05-29T11:25:55;2.78;;;1.70;;
63350;SDS011;64988;51.058;17.040;2023-05-29T11:31:23;2.50;;;1.60;;
63350;SDS011;64988;51.058;17.040;2023-05-29T11:36:51;4.32;;;1.70;;
63350;SDS011;64988;51.058;17.040;2023-05-29T11:42:18;3.33;;;1.70;;
63350;SDS011;64988;51.058;17.040;2023-05-29T11:53:19;12.38;;;2.30;;
63350;SDS011;64988;51.058;17.040;2023-05-29T11:58:46;1.48;;;1.35;;
63350;SDS011;64988;51.058;17.040;2023-05-29T12:04:15;8.57;;;1.45;;
63350;SDS011;64988;51.058;17.040;2023-05-29T12:09:42;3.28;;;1.58;;
63350;SDS011;64988;51.058;17.040;2023-05-29T12:15:09;2.70;;;1.80;;
63350;SDS011;64988;51.058;17.040;2023-05-29T12:20:38;2.58;;;1.50;;
63350;SDS011;64988;51.058;17.040;2023-05-29T12:26:06;2.45;;;1.85;;
63350;SDS011;64988;51.058;17.040;2023-05-29T12:31:33;2.25;;;1.23;;
63350;SDS011;64988;51.058;17.040;2023-05-29T12:37:08;2.72;;;1.52;;
63350;SDS011;64988;51.058;17.040;2023-05-29T12:42:39;2.90;;;1.75;;
63350;SDS011;64988;51.058;17.040;2023-05-29T12:48:07;2.67;;;1.60;;
63350;SDS011;64988;51.058;17.040;2023-05-29T12:53:34;1.80;;;1.52;;
63350;SDS011;64988;51.058;17.040;2023-05-29T12:59:02;6.68;;;1.85;;
63350;SDS011;64988;51.058;17.040;2023-05-29T13:04:30;4.88;;;1.85;;
63350;SDS011;64988;51.058;17.040;2023-05-29T13:09:58;1.58;;;1.25;;
63350;SDS011;64988;51.058;17.040;2023-05-29T13:15:26;1.55;;;1.42;;
63350;SDS011;64988;51.058;17.040;2023-05-29T13:20:53;2.60;;;2.00;;
63350;SDS011;64988;51.058;17.040;2023-05-29T13:26:21;1.88;;;1.40;;
63350;SDS011;64988;51.058;17.040;2023-05-29T13:31:48;3.00;;;1.95;;
63350;SDS011;64988;51.058;17.040;2023-05-29T13:37:16;2.25;;;1.90;;
63350;SDS011;64988;51.058;17.040;2023-05-29T13:42:42;5.13;;;1.90;;
63350;SDS011;64988;51.058;17.040;2023-05-29T13:48:09;2.83;;;1.63;;
63350;SDS011;64988;51.058;17.040;2023-05-29T13:53:36;1.92;;;1.63;;
63350;SDS011;64988;51.058;17.040;2023-05-29T13:59:03;3.92;;;1.88;;
63350;SDS011;64988;51.058;17.040;2023-05-29T14:04:33;3.58;;;1.70;;
63350;SDS011;64988;51.058;17.040;2023-05-29T14:09:59;4.38;;;1.83;;
63350;SDS011;64988;51.058;17.040;2023-05-29T14:15:27;5.47;;;2.22;;
63350;SDS011;64988;51.058;17.040;2023-05-29T14:20:54;2.53;;;2.03;;
63350;SDS011;64988;51.058;17.040;2023-05-29T14:26:22;2.78;;;1.92;;
63350;SDS011;64988;51.058;17.040;2023-05-29T14:31:49;3.55;;;1.55;;
63350;SDS011;64988;51.058;17.040;2023-05-29T14:37:16;3.72;;;1.73;;
63350;SDS011;64988;51.058;17.040;2023-05-29T14:42:44;2.22;;;1.70;;
63350;SDS011;64988;51.058;17.040;2023-05-29T14:48:13;2.45;;;1.88;;
63350;SDS011;64988;51.058;17.040;2023-05-29T14:53:40;2.78;;;1.52;;
63350;SDS011;64988;51.058;17.040;2023-05-29T14:59:07;2.90;;;2.25;;
63350;SDS011;64988;51.058;17.040;2023-05-29T15:04:35;2.55;;;2.03;;
63350;SDS011;64988;51.058;17.040;2023-05-29T15:10:03;2.40;;;1.88;;
63350;SDS011;64988;51.058;17.040;2023-05-29T15:15:31;4.20;;;2.08;;
63350;SDS011;64988;51.058;17.040;2023-05-29T15:21:13;3.47;;;1.80;;
63350;SDS011;64988;51.058;17.040;2023-05-29T15:26:41;3.33;;;1.90;;
63350;SDS011;64988;51.058;17.040;2023-05-29T15:32:08;3.40;;;2.17;;
63350;SDS011;64988;51.058;17.040;2023-05-29T15:37:35;4.32;;;2.10;;
63350;SDS011;64988;51.058;17.040;2023-05-29T15:43:02;3.53;;;2.33;;
63350;SDS011;64988;51.058;17.040;2023-05-29T15:48:30;3.28;;;2.10;;
63350;SDS011;64988;51.058;17.040;2023-05-29T15:53:58;3.65;;;2.10;;
63350;SDS011;64988;51.058;17.040;2023-05-29T15:59:25;3.03;;;2.40;;
63350;SDS011;64988;51.058;17.040;2023-05-29T16:04:52;3.17;;;2.15;;
63350;SDS011;64988;51.058;17.040;2023-05-29T16:10:33;4.68;;;2.60;;
63350;SDS011;64988;51.058;17.040;2023-05-29T16:16:01;6.35;;;2.22;;
63350;SDS011;64988;51.058;17.040;2023-05-29T16:21:29;3.63;;;2.28;;
63350;SDS011;64988;51.058;17.040;2023-05-29T16:26:59;3.40;;;2.50;;
63350;SDS011;64988;51.058;17.040;2023-05-29T16:32:27;4.97;;;2.45;;
63350;SDS011;64988;51.058;17.040;2023-05-29T16:37:58;3.85;;;2.58;;
63350;SDS011;64988;51.058;17.040;2023-05-29T16:43:26;3.40;;;2.10;;
63350;SDS011;64988;51.058;17.040;2023-05-29T16:48:53;9.88;;;2.72;;
63350;SDS011;64988;51.058;17.040;2023-05-29T16:54:21;5.80;;;3.03;;
63350;SDS011;64988;51.058;17.040;2023-05-29T16:59:54;4.95;;;2.60;;
63350;SDS011;64988;51.058;17.040;2023-05-29T17:05:21;4.22;;;2.78;;
63350;SDS011;64988;51.058;17.040;2023-05-29T17:10:48;4.88;;;2.30;;
63350;SDS011;64988;51.058;17.040;2023-05-29T17:16:15;3.55;;;2.47;;
63350;SDS011;64988;51.058;17.040;2023-05-29T17:21:42;4.57;;;2.85;;
63350;SDS011;64988;51.058;17.040;2023-05-29T17:27:10;4.55;;;2.45;;
63350;SDS011;64988;51.058;17.040;2023-05-29T17:32:37;5.53;;;2.75;;
63350;SDS011;64988;51.058;17.040;2023-05-29T17:38:05;7.13;;;2.85;;
63350;SDS011;64988;51.058;17.040;2023-05-29T17:43:33;4.63;;;2.35;;
63350;SDS011;64988;51.058;17.040;2023-05-29T17:49:00;2.38;;;1.77;;
63350;SDS011;64988;51.058;17.040;2023-05-29T17:54:28;5.13;;;2.50;;
63350;SDS011;64988;51.058;17.040;2023-05-29T17:59:55;3.80;;;2.63;;
63350;SDS011;64988;51.058;17.040;2023-05-29T18:05:23;4.57;;;2.80;;
63350;SDS011;64988;51.058;17.040;2023-05-29T18:10:50;4.82;;;2.75;;
63350;SDS011;64988;51.058;17.040;2023-05-29T18:16:19;5.53;;;2.70;;
63350;SDS011;64988;51.058;17.040;2023-05-29T18:21:47;4.55;;;2.58;;
63350;SDS011;64988;51.058;17.040;2023-05-29T18:27:15;5.15;;;2.30;;
63350;SDS011;64988;51.058;17.040;2023-05-29T18:32:42;7.15;;;3.10;;
63350;SDS011;64988;51.058;17.040;2023-05-29T18:38:10;4.95;;;2.38;;
63350;SDS011;64988;51.058;17.040;2023-05-29T18:43:41;4.53;;;2.75;;
63350;SDS011;64988;51.058;17.040;2023-05-29T18:49:09;7.53;;;3.35;;
63350;SDS011;64988;51.058;17.040;2023-05-29T18:54:37;4.05;;;2.45;;
63350;SDS011;64988;51.058;17.040;2023-05-29T19:00:04;6.80;;;2.53;;
63350;SDS011;64988;51.058;17.040;2023-05-29T19:05:33;4.55;;;2.45;;
63350;SDS011;64988;51.058;17.040;2023-05-29T19:10:59;6.53;;;2.88;;
63350;SDS011;64988;51.058;17.040;2023-05-29T19:16:27;6.28;;;3.20;;
63350;SDS011;64988;51.058;17.040;2023-05-29T19:21:54;4.38;;;2.72;;
63350;SDS011;64988;51.058;17.040;2023-05-29T19:27:20;6.70;;;2.72;;
63350;SDS011;64988;51.058;17.040;2023-05-29T19:32:49;4.72;;;2.83;;
63350;SDS011;64988;51.058;17.040;2023-05-29T19:38:17;5.68;;;3.40;;
63350;SDS011;64988;51.058;17.040;2023-05-29T19:43:45;6.10;;;2.80;;
63350;SDS011;64988;51.058;17.040;2023-05-29T19:49:13;4.38;;;3.25;;
63350;SDS011;64988;51.058;17.040;2023-05-29T19:54:42;4.55;;;2.85;;
63350;SDS011;64988;51.058;17.040;2023-05-29T20:00:09;5.47;;;2.85;;
63350;SDS011;64988;51.058;17.040;2023-05-29T20:05:41;7.97;;;2.72;;
63350;SDS011;64988;51.058;17.040;2023-05-29T20:11:08;3.38;;;2.58;;
63350;SDS011;64988;51.058;17.040;2023-05-29T20:16:36;4.75;;;2.70;;
63350;SDS011;64988;51.058;17.040;2023-05-29T20:22:04;4.65;;;2.38;;
63350;SDS011;64988;51.058;17.040;2023-05-29T20:27:32;8.30;;;3.22;;
63350;SDS011;64988;51.058;17.040;2023-05-29T20:32:59;6.57;;;2.97;;
63350;SDS011;64988;51.058;17.040;2023-05-29T20:38:28;4.22;;;2.35;;
63350;SDS011;64988;51.058;17.040;2023-05-29T20:43:57;3.72;;;2.22;;
63350;SDS011;64988;51.058;17.040;2023-05-29T20:49:26;5.95;;;2.63;;
63350;SDS011;64988;51.058;17.040;2023-05-29T20:54:55;3.13;;;2.15;;
63350;SDS011;64988;51.058;17.040;2023-05-29T21:00:22;6.38;;;3.42;;
63350;SDS011;64988;51.058;17.040;2023-05-29T21:05:51;7.05;;;2.92;;
63350;SDS011;64988;51.058;17.040;2023-05-29T21:11:18;2.80;;;1.92;;
63350;SDS011;64988;51.058;17.040;2023-05-29T21:16:46;6.50;;;2.65;;
63350;SDS011;64988;51.058;17.040;2023-05-29T21:22:15;3.90;;;2.42;;
63350;SDS011;64988;51.058;17.040;2023-05-29T21:27:42;4.03;;;2.70;;
63350;SDS011;64988;51.058;17.040;2023-05-29T21:33:10;5.65;;;2.28;;
63350;SDS011;64988;51.058;17.040;2023-05-29T21:38:38;4.32;;;2.85;;
63350;SDS011;64988;51.058;17.040;2023-05-29T21:44:07;6.55;;;2.60;;
63350;SDS011;64988;51.058;17.040;2023-05-29T21:49:35;4.55;;;2.83;;
63350;SDS011;64988;51.058;17.040;2023-05-29T21:55:01;4.28;;;3.05;;
63350;SDS011;64988;51.058;17.040;2023-05-29T22:00:29;3.97;;;2.85;;
63350;SDS011;64988;51.058;17.040;2023-05-29T22:05:57;6.45;;;2.75;;
63350;SDS011;64988;51.058;17.040;2023-05-29T22:11:24;5.15;;;2.63;;
63350;SDS011;64988;51.058;17.040;2023-05-29T22:16:53;4.10;;;2.33;;
63350;SDS011;64988;51.058;17.040;2023-05-29T22:22:21;6.30;;;2.70;;
63350;SDS011;64988;51.058;17.040;2023-05-29T22:27:49;7.95;;;2.45;;
63350;SDS011;64988;51.058;17.040;2023-05-29T22:33:16;4.18;;;2.03;;
63350;SDS011;64988;51.058;17.040;2023-05-29T22:38:43;5.18;;;2.72;;
63350;SDS011;64988;51.058;17.040;2023-05-29T22:44:11;3.88;;;2.28;;
63350;SDS011;64988;51.058;17.040;2023-05-29T22:49:38;7.45;;;2.55;;
63350;SDS011;64988;51.058;17.040;2023-05-29T22:55:05;6.72;;;3.25;;
63350;SDS011;64988;51.058;17.040;2023-05-29T23:00:33;7.18;;;2.75;;
63350;SDS011;64988;51.058;17.040;2023-05-29T23:06:03;6.78;;;2.85;;
63350;SDS011;64988;51.058;17.040;2023-05-29T23:11:30;3.78;;;2.47;;
63350;SDS011;64988;51.058;17.040;2023-05-29T23:16:57;6.20;;;2.50;;
63350;SDS011;64988;51.058;17.040;2023-05-29T23:22:24;3.90;;;2.28;;
63350;SDS011;64988;51.058;17.040;2023-05-29T23:27:51;5.53;;;2.75;;
63350;SDS011;64988;51.058;17.040;2023-05-29T23:33:19;7.10;;;2.45;;
63350;SDS011;64988;51.058;17.040;2023-05-29T23:38:46;6.13;;;2.70;;
63350;SDS011;64988;51.058;17.040;2023-05-29T23:44:13;5.70;;;2.67;;
63350;SDS011;64988;51.058;17.040;2023-05-29T23:49:40;4.57;;;2.30;;
63350;SDS011;64988;51.058;17.040;2023-05-29T23:55:07;9.00;;;2.45;;
